sensor_id;sensor_type;location;lat;lon;timestamp;P1;durP1;ratioP1;P2;durP2;ratioP2
15958;SDS011;8078;47.822;9.402;2024-01-30T00:01:15;10.23;;;6.03;;
15958;SDS011;8078;47.822;9.402;2024-01-30T00:03:40;7.90;;;6.00;;
15958;SDS011;8078;47.822;9.402;2024-01-30T00:06:06;9.07;;;6.17;;
15958;SDS011;8078;47.822;9.402;2024-01-30T00:08:36;9.67;;;6.23;;
15958;SDS011;8078;47.822;9.402;2024-01-30T00:11:01;9.73;;;6.60;;
15958;SDS011;8078;47.822;9.402;2024-01-30T00:13:27;7.40;;;5.57;;
15958;SDS011;8078;47.822;9.402;2024-01-30T00:15:52;7.97;;;5.83;;
15958;SDS011;8078;47.822;9.402;2024-01-30T00:18:18;10.10;;;6.23;;
15958;SDS011;8078;47.822;9.402;2024-01-30T00:20:44;7.37;;;5.57;;
15958;SDS011;8078;47.822;9.402;2024-01-30T00:23:10;11.27;;;6.10;;
15958;SDS011;8078;47.822;9.402;2024-01-30T00:25:35;8.73;;;6.17;;
15958;SDS011;8078;47.822;9.402;2024-01-30T00:28:01;13.67;;;7.17;;
15958;SDS011;8078;47.822;9.402;2024-01-30T00:30:27;10.23;;;6.50;;
15958;SDS011;8078;47.822;9.402;2024-01-30T00:32:53;8.20;;;6.10;;
15958;SDS011;8078;47.822;9.402;2024-01-30T00:35:19;9.40;;;6.57;;
15958;SDS011;8078;47.822;9.402;2024-01-30T00:37:44;9.17;;;6.20;;
15958;SDS011;8078;47.822;9.402;2024-01-30T00:40:10;9.93;;;6.53;;
15958;SDS011;8078;47.822;9.402;2024-01-30T00:42:40;9.77;;;6.50;;
15958;SDS011;8078;47.822;9.402;2024-01-30T00:45:11;10.27;;;6.40;;
15958;SDS011;8078;47.822;9.402;2024-01-30T00:47:40;10.57;;;6.50;;
15958;SDS011;8078;47.822;9.402;2024-01-30T00:50:06;9.67;;;6.97;;
15958;SDS011;8078;47.822;9.402;2024-01-30T00:52:32;10.47;;;7.33;;
15958;SDS011;8078;47.822;9.402;2024-01-30T00:54:58;10.10;;;7.10;;
15958;SDS011;8078;47.822;9.402;2024-01-30T00:57:24;9.63;;;6.63;;
15958;SDS011;8078;47.822;9.402;2024-01-30T00:59:49;10.53;;;7.33;;
15958;SDS011;8078;47.822;9.402;2024-01-30T01:02:15;10.17;;;6.90;;
15958;SDS011;8078;47.822;9.402;2024-01-30T01:04:42;9.63;;;6.77;;
15958;SDS011;8078;47.822;9.402;2024-01-30T01:07:09;10.23;;;7.07;;
15958;SDS011;8078;47.822;9.402;2024-01-30T01:09:35;10.67;;;6.87;;
15958;SDS011;8078;47.822;9.402;2024-01-30T01:12:01;9.10;;;6.20;;
15958;SDS011;8078;47.822;9.402;2024-01-30T01:14:27;9.10;;;6.60;;
15958;SDS011;8078;47.822;9.402;2024-01-30T01:16:52;11.53;;;6.83;;
15958;SDS011;8078;47.822;9.402;2024-01-30T01:19:18;11.73;;;6.33;;
15958;SDS011;8078;47.822;9.402;2024-01-30T01:21:43;7.27;;;6.17;;
15958;SDS011;8078;47.822;9.402;2024-01-30T01:24:09;9.07;;;6.33;;
15958;SDS011;8078;47.822;9.402;2024-01-30T01:26:34;9.73;;;6.50;;
15958;SDS011;8078;47.822;9.402;2024-01-30T01:29:00;9.43;;;6.13;;
15958;SDS011;8078;47.822;9.402;2024-01-30T01:31:25;10.77;;;7.17;;
15958;SDS011;8078;47.822;9.402;2024-01-30T01:33:54;9.13;;;6.33;;
15958;SDS011;8078;47.822;9.402;2024-01-30T01:36:20;11.37;;;6.83;;
15958;SDS011;8078;47.822;9.402;2024-01-30T01:38:46;11.13;;;7.00;;
15958;SDS011;8078;47.822;9.402;2024-01-30T01:41:11;10.50;;;6.97;;
15958;SDS011;8078;47.822;9.402;2024-01-30T01:43:37;11.33;;;7.10;;
15958;SDS011;8078;47.822;9.402;2024-01-30T01:46:04;10.60;;;7.07;;
15958;SDS011;8078;47.822;9.402;2024-01-30T01:48:30;10.93;;;7.50;;
15958;SDS011;8078;47.822;9.402;2024-01-30T01:50:56;11.43;;;7.60;;
15958;SDS011;8078;47.822;9.402;2024-01-30T01:53:23;9.27;;;7.07;;
15958;SDS011;8078;47.822;9.402;2024-01-30T01:55:48;10.37;;;7.53;;
15958;SDS011;8078;47.822;9.402;2024-01-30T01:58:14;11.93;;;7.57;;
15958;SDS011;8078;47.822;9.402;2024-01-30T02:00:40;12.47;;;7.67;;
15958;SDS011;8078;47.822;9.402;2024-01-30T02:03:07;14.60;;;8.33;;
15958;SDS011;8078;47.822;9.402;2024-01-30T02:05:36;12.77;;;7.83;;
15958;SDS011;8078;47.822;9.402;2024-01-30T02:08:02;12.50;;;7.83;;
15958;SDS011;8078;47.822;9.402;2024-01-30T02:10:28;10.83;;;7.50;;
15958;SDS011;8078;47.822;9.402;2024-01-30T02:12:55;11.83;;;7.70;;
15958;SDS011;8078;47.822;9.402;2024-01-30T02:15:20;10.90;;;7.70;;
15958;SDS011;8078;47.822;9.402;2024-01-30T02:17:47;13.60;;;7.23;;
15958;SDS011;8078;47.822;9.402;2024-01-30T02:20:12;12.97;;;7.83;;
15958;SDS011;8078;47.822;9.402;2024-01-30T02:22:38;12.33;;;7.53;;
15958;SDS011;8078;47.822;9.402;2024-01-30T02:25:05;11.20;;;7.27;;
15958;SDS011;8078;47.822;9.402;2024-01-30T02:27:31;10.33;;;7.20;;
15958;SDS011;8078;47.822;9.402;2024-01-30T02:29:56;13.70;;;9.47;;
15958;SDS011;8078;47.822;9.402;2024-01-30T02:32:22;11.03;;;8.00;;
15958;SDS011;8078;47.822;9.402;2024-01-30T02:34:48;12.60;;;7.60;;
15958;SDS011;8078;47.822;9.402;2024-01-30T02:37:13;13.07;;;8.63;;
15958;SDS011;8078;47.822;9.402;2024-01-30T02:39:39;10.70;;;7.00;;
15958;SDS011;8078;47.822;9.402;2024-01-30T02:42:04;11.00;;;7.07;;
15958;SDS011;8078;47.822;9.402;2024-01-30T02:44:30;9.60;;;6.83;;
15958;SDS011;8078;47.822;9.402;2024-01-30T02:46:55;9.57;;;6.53;;
15958;SDS011;8078;47.822;9.402;2024-01-30T02:49:21;12.33;;;7.00;;
15958;SDS011;8078;47.822;9.402;2024-01-30T02:51:47;11.67;;;8.40;;
15958;SDS011;8078;47.822;9.402;2024-01-30T02:54:13;10.03;;;7.27;;
15958;SDS011;8078;47.822;9.402;2024-01-30T02:56:38;13.17;;;7.40;;
15958;SDS011;8078;47.822;9.402;2024-01-30T02:59:04;10.13;;;7.47;;
15958;SDS011;8078;47.822;9.402;2024-01-30T03:01:30;10.67;;;7.00;;
15958;SDS011;8078;47.822;9.402;2024-01-30T03:03:56;10.67;;;7.30;;
15958;SDS011;8078;47.822;9.402;2024-01-30T03:06:22;9.63;;;6.67;;
15958;SDS011;8078;47.822;9.402;2024-01-30T03:08:48;10.00;;;6.47;;
15958;SDS011;8078;47.822;9.402;2024-01-30T03:11:13;13.27;;;7.33;;
15958;SDS011;8078;47.822;9.402;2024-01-30T03:13:39;10.30;;;6.97;;
15958;SDS011;8078;47.822;9.402;2024-01-30T03:16:05;11.93;;;7.17;;
15958;SDS011;8078;47.822;9.402;2024-01-30T03:18:31;11.13;;;7.67;;
15958;SDS011;8078;47.822;9.402;2024-01-30T03:20:56;14.97;;;7.17;;
15958;SDS011;8078;47.822;9.402;2024-01-30T03:23:22;12.83;;;7.27;;
15958;SDS011;8078;47.822;9.402;2024-01-30T03:25:48;13.07;;;7.90;;
15958;SDS011;8078;47.822;9.402;2024-01-30T03:28:13;13.50;;;7.40;;
15958;SDS011;8078;47.822;9.402;2024-01-30T03:30:39;12.37;;;7.93;;
15958;SDS011;8078;47.822;9.402;2024-01-30T03:33:04;11.53;;;7.30;;
15958;SDS011;8078;47.822;9.402;2024-01-30T03:35:30;10.87;;;7.63;;
15958;SDS011;8078;47.822;9.402;2024-01-30T03:37:55;14.13;;;8.33;;
15958;SDS011;8078;47.822;9.402;2024-01-30T03:40:21;12.17;;;8.30;;
15958;SDS011;8078;47.822;9.402;2024-01-30T03:42:46;11.67;;;8.00;;
15958;SDS011;8078;47.822;9.402;2024-01-30T03:45:12;11.87;;;7.63;;
15958;SDS011;8078;47.822;9.402;2024-01-30T03:47:37;14.10;;;7.67;;
15958;SDS011;8078;47.822;9.402;2024-01-30T03:50:03;12.33;;;7.97;;
15958;SDS011;8078;47.822;9.402;2024-01-30T03:52:29;10.83;;;7.43;;
15958;SDS011;8078;47.822;9.402;2024-01-30T03:54:55;12.70;;;8.20;;
15958;SDS011;8078;47.822;9.402;2024-01-30T03:57:21;12.83;;;8.00;;
15958;SDS011;8078;47.822;9.402;2024-01-30T03:59:47;13.80;;;7.93;;
15958;SDS011;8078;47.822;9.402;2024-01-30T04:02:12;11.40;;;7.77;;
15958;SDS011;8078;47.822;9.402;2024-01-30T04:04:38;12.47;;;8.20;;
15958;SDS011;8078;47.822;9.402;2024-01-30T04:07:03;12.10;;;7.17;;
15958;SDS011;8078;47.822;9.402;2024-01-30T04:09:29;13.10;;;8.40;;
15958;SDS011;8078;47.822;9.402;2024-01-30T04:11:54;11.13;;;7.20;;
15958;SDS011;8078;47.822;9.402;2024-01-30T04:14:20;11.90;;;6.90;;
15958;SDS011;8078;47.822;9.402;2024-01-30T04:16:46;10.37;;;6.73;;
15958;SDS011;8078;47.822;9.402;2024-01-30T04:19:11;10.97;;;7.03;;
15958;SDS011;8078;47.822;9.402;2024-01-30T04:21:37;11.13;;;6.80;;
15958;SDS011;8078;47.822;9.402;2024-01-30T04:24:02;12.27;;;6.90;;
15958;SDS011;8078;47.822;9.402;2024-01-30T04:26:28;11.33;;;6.90;;
15958;SDS011;8078;47.822;9.402;2024-01-30T04:28:53;10.23;;;6.30;;
15958;SDS011;8078;47.822;9.402;2024-01-30T04:31:19;9.97;;;6.30;;
15958;SDS011;8078;47.822;9.402;2024-01-30T04:33:45;11.07;;;6.83;;
15958;SDS011;8078;47.822;9.402;2024-01-30T04:36:10;7.70;;;5.53;;
15958;SDS011;8078;47.822;9.402;2024-01-30T04:38:36;8.70;;;6.53;;
15958;SDS011;8078;47.822;9.402;2024-01-30T04:41:03;9.77;;;5.80;;
15958;SDS011;8078;47.822;9.402;2024-01-30T04:43:29;8.20;;;6.00;;
15958;SDS011;8078;47.822;9.402;2024-01-30T04:45:55;8.00;;;5.47;;
15958;SDS011;8078;47.822;9.402;2024-01-30T04:48:20;8.27;;;5.40;;
15958;SDS011;8078;47.822;9.402;2024-01-30T04:50:46;8.30;;;5.90;;
15958;SDS011;8078;47.822;9.402;2024-01-30T04:53:11;7.50;;;5.03;;
15958;SDS011;8078;47.822;9.402;2024-01-30T04:55:37;8.03;;;5.30;;
15958;SDS011;8078;47.822;9.402;2024-01-30T04:58:02;10.67;;;5.93;;
15958;SDS011;8078;47.822;9.402;2024-01-30T05:00:28;6.10;;;4.73;;
15958;SDS011;8078;47.822;9.402;2024-01-30T05:02:57;6.47;;;5.03;;
15958;SDS011;8078;47.822;9.402;2024-01-30T05:05:22;6.67;;;5.17;;
15958;SDS011;8078;47.822;9.402;2024-01-30T05:07:48;6.97;;;5.10;;
15958;SDS011;8078;47.822;9.402;2024-01-30T05:10:13;6.80;;;5.13;;
15958;SDS011;8078;47.822;9.402;2024-01-30T05:12:39;6.73;;;5.13;;
15958;SDS011;8078;47.822;9.402;2024-01-30T05:15:05;9.40;;;5.20;;
15958;SDS011;8078;47.822;9.402;2024-01-30T05:17:31;10.43;;;5.33;;
15958;SDS011;8078;47.822;9.402;2024-01-30T05:19:57;9.20;;;5.63;;
15958;SDS011;8078;47.822;9.402;2024-01-30T05:22:22;7.90;;;5.60;;
15958;SDS011;8078;47.822;9.402;2024-01-30T05:24:48;7.67;;;5.03;;
15958;SDS011;8078;47.822;9.402;2024-01-30T05:27:13;9.43;;;5.87;;
15958;SDS011;8078;47.822;9.402;2024-01-30T05:29:39;7.67;;;5.30;;
15958;SDS011;8078;47.822;9.402;2024-01-30T05:32:06;8.63;;;5.63;;
15958;SDS011;8078;47.822;9.402;2024-01-30T05:34:31;7.77;;;5.50;;
15958;SDS011;8078;47.822;9.402;2024-01-30T05:36:57;7.57;;;5.57;;
15958;SDS011;8078;47.822;9.402;2024-01-30T05:39:23;8.47;;;5.27;;
15958;SDS011;8078;47.822;9.402;2024-01-30T05:41:48;9.60;;;6.20;;
15958;SDS011;8078;47.822;9.402;2024-01-30T05:44:14;7.60;;;6.03;;
15958;SDS011;8078;47.822;9.402;2024-01-30T05:46:39;9.20;;;6.53;;
15958;SDS011;8078;47.822;9.402;2024-01-30T05:49:05;9.17;;;6.00;;
15958;SDS011;8078;47.822;9.402;2024-01-30T05:51:31;11.83;;;6.37;;
15958;SDS011;8078;47.822;9.402;2024-01-30T05:53:56;10.03;;;6.33;;
15958;SDS011;8078;47.822;9.402;2024-01-30T05:56:22;8.83;;;6.00;;
15958;SDS011;8078;47.822;9.402;2024-01-30T05:58:48;9.90;;;6.33;;
15958;SDS011;8078;47.822;9.402;2024-01-30T06:01:15;11.03;;;6.80;;
15958;SDS011;8078;47.822;9.402;2024-01-30T06:03:41;9.07;;;6.50;;
15958;SDS011;8078;47.822;9.402;2024-01-30T06:06:08;10.33;;;6.90;;
15958;SDS011;8078;47.822;9.402;2024-01-30T06:08:34;10.73;;;6.77;;
15958;SDS011;8078;47.822;9.402;2024-01-30T06:11:00;10.43;;;7.27;;
15958;SDS011;8078;47.822;9.402;2024-01-30T06:13:26;11.47;;;7.13;;
15958;SDS011;8078;47.822;9.402;2024-01-30T06:15:54;10.73;;;6.90;;
15958;SDS011;8078;47.822;9.402;2024-01-30T06:18:19;12.83;;;6.87;;
15958;SDS011;8078;47.822;9.402;2024-01-30T06:20:45;14.10;;;7.10;;
15958;SDS011;8078;47.822;9.402;2024-01-30T06:23:11;10.23;;;6.73;;
15958;SDS011;8078;47.822;9.402;2024-01-30T06:25:37;9.53;;;6.77;;
15958;SDS011;8078;47.822;9.402;2024-01-30T06:28:03;12.37;;;7.00;;
15958;SDS011;8078;47.822;9.402;2024-01-30T06:30:29;13.27;;;6.83;;
15958;SDS011;8078;47.822;9.402;2024-01-30T06:32:55;11.17;;;6.70;;
15958;SDS011;8078;47.822;9.402;2024-01-30T06:35:20;11.50;;;7.03;;
15958;SDS011;8078;47.822;9.402;2024-01-30T06:37:46;10.97;;;7.13;;
15958;SDS011;8078;47.822;9.402;2024-01-30T06:40:12;11.47;;;7.37;;
15958;SDS011;8078;47.822;9.402;2024-01-30T06:42:38;15.20;;;7.93;;
15958;SDS011;8078;47.822;9.402;2024-01-30T06:45:03;8.43;;;6.50;;
15958;SDS011;8078;47.822;9.402;2024-01-30T06:47:29;11.17;;;6.90;;
15958;SDS011;8078;47.822;9.402;2024-01-30T06:49:56;10.33;;;7.30;;
15958;SDS011;8078;47.822;9.402;2024-01-30T06:52:21;14.97;;;8.20;;
15958;SDS011;8078;47.822;9.402;2024-01-30T06:54:47;11.53;;;7.70;;
15958;SDS011;8078;47.822;9.402;2024-01-30T06:57:14;11.63;;;7.17;;
15958;SDS011;8078;47.822;9.402;2024-01-30T06:59:40;12.27;;;7.53;;
15958;SDS011;8078;47.822;9.402;2024-01-30T07:02:08;10.73;;;7.50;;
15958;SDS011;8078;47.822;9.402;2024-01-30T07:04:36;10.40;;;7.03;;
15958;SDS011;8078;47.822;9.402;2024-01-30T07:07:02;12.03;;;7.73;;
15958;SDS011;8078;47.822;9.402;2024-01-30T07:09:30;10.70;;;7.17;;
15958;SDS011;8078;47.822;9.402;2024-01-30T07:11:55;11.00;;;7.57;;
15958;SDS011;8078;47.822;9.402;2024-01-30T07:14:23;11.53;;;7.40;;
15958;SDS011;8078;47.822;9.402;2024-01-30T07:16:49;9.30;;;7.10;;
15958;SDS011;8078;47.822;9.402;2024-01-30T07:19:15;9.43;;;7.03;;
15958;SDS011;8078;47.822;9.402;2024-01-30T07:21:41;10.93;;;7.03;;
15958;SDS011;8078;47.822;9.402;2024-01-30T07:24:06;10.37;;;6.97;;
15958;SDS011;8078;47.822;9.402;2024-01-30T07:26:32;11.90;;;7.60;;
15958;SDS011;8078;47.822;9.402;2024-01-30T07:28:57;13.47;;;7.87;;
15958;SDS011;8078;47.822;9.402;2024-01-30T07:31:23;10.27;;;7.63;;
15958;SDS011;8078;47.822;9.402;2024-01-30T07:33:48;12.00;;;8.00;;
15958;SDS011;8078;47.822;9.402;2024-01-30T07:36:14;14.83;;;8.90;;
15958;SDS011;8078;47.822;9.402;2024-01-30T07:38:40;16.53;;;8.50;;
15958;SDS011;8078;47.822;9.402;2024-01-30T07:41:05;14.87;;;8.60;;
15958;SDS011;8078;47.822;9.402;2024-01-30T07:43:31;13.13;;;8.37;;
15958;SDS011;8078;47.822;9.402;2024-01-30T07:45:56;12.93;;;8.67;;
15958;SDS011;8078;47.822;9.402;2024-01-30T07:48:22;13.70;;;8.77;;
15958;SDS011;8078;47.822;9.402;2024-01-30T07:50:47;13.33;;;7.80;;
15958;SDS011;8078;47.822;9.402;2024-01-30T07:53:13;14.43;;;9.00;;
15958;SDS011;8078;47.822;9.402;2024-01-30T07:55:54;14.77;;;8.90;;
15958;SDS011;8078;47.822;9.402;2024-01-30T07:58:21;13.40;;;8.43;;
15958;SDS011;8078;47.822;9.402;2024-01-30T08:00:48;15.53;;;9.10;;
15958;SDS011;8078;47.822;9.402;2024-01-30T08:03:14;12.07;;;8.53;;
15958;SDS011;8078;47.822;9.402;2024-01-30T08:05:41;12.60;;;8.50;;
15958;SDS011;8078;47.822;9.402;2024-01-30T08:08:07;11.47;;;8.27;;
15958;SDS011;8078;47.822;9.402;2024-01-30T08:10:32;16.70;;;9.40;;
15958;SDS011;8078;47.822;9.402;2024-01-30T08:12:58;13.93;;;9.13;;
15958;SDS011;8078;47.822;9.402;2024-01-30T08:15:24;14.97;;;10.17;;
15958;SDS011;8078;47.822;9.402;2024-01-30T08:17:49;16.53;;;10.00;;
15958;SDS011;8078;47.822;9.402;2024-01-30T08:20:20;18.03;;;10.83;;
15958;SDS011;8078;47.822;9.402;2024-01-30T08:22:46;16.17;;;10.27;;
15958;SDS011;8078;47.822;9.402;2024-01-30T08:25:11;17.47;;;11.17;;
15958;SDS011;8078;47.822;9.402;2024-01-30T08:27:37;16.43;;;10.93;;
15958;SDS011;8078;47.822;9.402;2024-01-30T08:30:04;15.97;;;10.23;;
15958;SDS011;8078;47.822;9.402;2024-01-30T08:32:31;16.40;;;11.23;;
15958;SDS011;8078;47.822;9.402;2024-01-30T08:34:57;17.47;;;11.37;;
15958;SDS011;8078;47.822;9.402;2024-01-30T08:37:23;16.83;;;10.43;;
15958;SDS011;8078;47.822;9.402;2024-01-30T08:39:48;18.13;;;11.83;;
15958;SDS011;8078;47.822;9.402;2024-01-30T08:42:14;20.60;;;11.63;;
15958;SDS011;8078;47.822;9.402;2024-01-30T08:44:39;21.17;;;12.00;;
15958;SDS011;8078;47.822;9.402;2024-01-30T08:47:05;23.33;;;12.00;;
15958;SDS011;8078;47.822;9.402;2024-01-30T08:49:31;22.97;;;13.20;;
15958;SDS011;8078;47.822;9.402;2024-01-30T08:51:57;20.30;;;11.60;;
15958;SDS011;8078;47.822;9.402;2024-01-30T08:54:23;19.57;;;11.80;;
15958;SDS011;8078;47.822;9.402;2024-01-30T08:56:48;19.93;;;10.93;;
15958;SDS011;8078;47.822;9.402;2024-01-30T08:59:14;17.00;;;11.53;;
15958;SDS011;8078;47.822;9.402;2024-01-30T09:01:40;17.67;;;11.47;;
15958;SDS011;8078;47.822;9.402;2024-01-30T09:04:05;18.23;;;11.67;;
15958;SDS011;8078;47.822;9.402;2024-01-30T09:06:31;21.30;;;11.20;;
15958;SDS011;8078;47.822;9.402;2024-01-30T09:08:57;17.43;;;12.40;;
15958;SDS011;8078;47.822;9.402;2024-01-30T09:11:23;16.93;;;11.30;;
15958;SDS011;8078;47.822;9.402;2024-01-30T09:13:48;19.83;;;11.53;;
15958;SDS011;8078;47.822;9.402;2024-01-30T09:16:14;17.73;;;12.33;;
15958;SDS011;8078;47.822;9.402;2024-01-30T09:18:41;24.43;;;13.63;;
15958;SDS011;8078;47.822;9.402;2024-01-30T09:21:07;18.20;;;12.40;;
15958;SDS011;8078;47.822;9.402;2024-01-30T09:23:32;21.37;;;13.30;;
15958;SDS011;8078;47.822;9.402;2024-01-30T09:25:58;22.13;;;12.83;;
15958;SDS011;8078;47.822;9.402;2024-01-30T09:28:24;21.13;;;13.30;;
15958;SDS011;8078;47.822;9.402;2024-01-30T09:30:50;18.87;;;13.30;;
15958;SDS011;8078;47.822;9.402;2024-01-30T09:33:15;25.17;;;13.40;;
15958;SDS011;8078;47.822;9.402;2024-01-30T09:35:41;19.20;;;12.40;;
15958;SDS011;8078;47.822;9.402;2024-01-30T09:38:06;21.37;;;14.37;;
15958;SDS011;8078;47.822;9.402;2024-01-30T09:40:32;17.30;;;11.93;;
15958;SDS011;8078;47.822;9.402;2024-01-30T09:42:58;19.13;;;13.03;;
15958;SDS011;8078;47.822;9.402;2024-01-30T09:45:27;18.67;;;11.03;;
15958;SDS011;8078;47.822;9.402;2024-01-30T09:47:52;19.80;;;12.23;;
15958;SDS011;8078;47.822;9.402;2024-01-30T09:50:19;18.73;;;12.23;;
15958;SDS011;8078;47.822;9.402;2024-01-30T09:52:45;20.73;;;12.73;;
15958;SDS011;8078;47.822;9.402;2024-01-30T09:55:14;17.10;;;11.50;;
15958;SDS011;8078;47.822;9.402;2024-01-30T09:57:41;18.50;;;11.93;;
15958;SDS011;8078;47.822;9.402;2024-01-30T10:00:07;16.87;;;10.80;;
15958;SDS011;8078;47.822;9.402;2024-01-30T10:02:34;15.97;;;11.37;;
15958;SDS011;8078;47.822;9.402;2024-01-30T10:04:59;18.13;;;11.30;;
15958;SDS011;8078;47.822;9.402;2024-01-30T10:07:25;17.30;;;10.97;;
15958;SDS011;8078;47.822;9.402;2024-01-30T10:09:51;21.33;;;10.80;;
15958;SDS011;8078;47.822;9.402;2024-01-30T10:12:18;15.53;;;9.93;;
15958;SDS011;8078;47.822;9.402;2024-01-30T10:14:44;14.73;;;10.70;;
15958;SDS011;8078;47.822;9.402;2024-01-30T10:17:10;15.93;;;9.57;;
15958;SDS011;8078;47.822;9.402;2024-01-30T10:19:37;14.87;;;9.67;;
15958;SDS011;8078;47.822;9.402;2024-01-30T10:22:06;13.50;;;9.17;;
15958;SDS011;8078;47.822;9.402;2024-01-30T10:24:35;15.47;;;9.63;;
15958;SDS011;8078;47.822;9.402;2024-01-30T10:27:01;11.77;;;8.87;;
15958;SDS011;8078;47.822;9.402;2024-01-30T10:29:27;12.97;;;9.07;;
15958;SDS011;8078;47.822;9.402;2024-01-30T10:32:03;15.37;;;10.23;;
15958;SDS011;8078;47.822;9.402;2024-01-30T10:34:30;18.50;;;10.63;;
15958;SDS011;8078;47.822;9.402;2024-01-30T10:37:16;14.77;;;10.67;;
15958;SDS011;8078;47.822;9.402;2024-01-30T10:39:45;14.40;;;9.67;;
15958;SDS011;8078;47.822;9.402;2024-01-30T10:42:12;14.43;;;9.70;;
15958;SDS011;8078;47.822;9.402;2024-01-30T10:47:35;20.10;;;11.47;;
15958;SDS011;8078;47.822;9.402;2024-01-30T10:50:02;19.23;;;11.77;;
15958;SDS011;8078;47.822;9.402;2024-01-30T10:52:28;15.70;;;9.43;;
15958;SDS011;8078;47.822;9.402;2024-01-30T10:54:57;16.20;;;9.97;;
15958;SDS011;8078;47.822;9.402;2024-01-30T10:57:24;12.40;;;8.90;;
15958;SDS011;8078;47.822;9.402;2024-01-30T10:59:51;17.23;;;9.10;;
15958;SDS011;8078;47.822;9.402;2024-01-30T11:02:20;14.30;;;8.20;;
15958;SDS011;8078;47.822;9.402;2024-01-30T11:04:48;12.97;;;9.00;;
15958;SDS011;8078;47.822;9.402;2024-01-30T11:07:15;12.77;;;8.50;;
15958;SDS011;8078;47.822;9.402;2024-01-30T11:09:48;16.63;;;9.13;;
15958;SDS011;8078;47.822;9.402;2024-01-30T11:12:21;13.63;;;9.43;;
15958;SDS011;8078;47.822;9.402;2024-01-30T11:14:47;13.33;;;8.57;;
15958;SDS011;8078;47.822;9.402;2024-01-30T11:17:13;13.57;;;9.33;;
15958;SDS011;8078;47.822;9.402;2024-01-30T11:19:39;12.07;;;8.30;;
15958;SDS011;8078;47.822;9.402;2024-01-30T11:22:07;13.13;;;9.47;;
15958;SDS011;8078;47.822;9.402;2024-01-30T11:24:39;14.00;;;9.60;;
15958;SDS011;8078;47.822;9.402;2024-01-30T11:27:08;17.30;;;10.50;;
15958;SDS011;8078;47.822;9.402;2024-01-30T11:29:35;15.80;;;10.77;;
15958;SDS011;8078;47.822;9.402;2024-01-30T11:32:01;15.63;;;10.60;;
15958;SDS011;8078;47.822;9.402;2024-01-30T11:34:27;16.70;;;10.23;;
15958;SDS011;8078;47.822;9.402;2024-01-30T11:36:57;14.17;;;10.40;;
15958;SDS011;8078;47.822;9.402;2024-01-30T11:39:28;16.53;;;10.60;;
15958;SDS011;8078;47.822;9.402;2024-01-30T11:41:54;18.43;;;11.40;;
15958;SDS011;8078;47.822;9.402;2024-01-30T11:44:21;14.37;;;10.47;;
15958;SDS011;8078;47.822;9.402;2024-01-30T11:46:48;20.30;;;11.20;;
15958;SDS011;8078;47.822;9.402;2024-01-30T11:49:14;17.30;;;11.50;;
15958;SDS011;8078;47.822;9.402;2024-01-30T11:51:40;18.10;;;10.73;;
15958;SDS011;8078;47.822;9.402;2024-01-30T11:54:07;18.33;;;10.90;;
15958;SDS011;8078;47.822;9.402;2024-01-30T11:56:33;15.60;;;10.97;;
15958;SDS011;8078;47.822;9.402;2024-01-30T11:58:58;16.87;;;9.97;;
15958;SDS011;8078;47.822;9.402;2024-01-30T12:01:25;15.67;;;9.87;;
15958;SDS011;8078;47.822;9.402;2024-01-30T12:03:51;16.03;;;10.40;;
15958;SDS011;8078;47.822;9.402;2024-01-30T12:06:17;15.40;;;10.10;;
15958;SDS011;8078;47.822;9.402;2024-01-30T12:08:43;13.23;;;9.90;;
15958;SDS011;8078;47.822;9.402;2024-01-30T12:11:19;15.40;;;10.10;;
15958;SDS011;8078;47.822;9.402;2024-01-30T12:13:45;14.83;;;9.83;;
15958;SDS011;8078;47.822;9.402;2024-01-30T12:16:10;14.60;;;8.77;;
15958;SDS011;8078;47.822;9.402;2024-01-30T12:18:36;12.70;;;9.37;;
15958;SDS011;8078;47.822;9.402;2024-01-30T12:21:01;14.60;;;9.03;;
15958;SDS011;8078;47.822;9.402;2024-01-30T12:23:27;15.70;;;9.10;;
15958;SDS011;8078;47.822;9.402;2024-01-30T12:25:53;13.80;;;8.43;;
15958;SDS011;8078;47.822;9.402;2024-01-30T12:28:20;12.47;;;9.07;;
15958;SDS011;8078;47.822;9.402;2024-01-30T12:30:46;20.40;;;9.00;;
15958;SDS011;8078;47.822;9.402;2024-01-30T12:33:17;13.33;;;9.67;;
15958;SDS011;8078;47.822;9.402;2024-01-30T12:35:46;12.63;;;7.73;;
15958;SDS011;8078;47.822;9.402;2024-01-30T12:38:13;16.40;;;9.53;;
15958;SDS011;8078;47.822;9.402;2024-01-30T12:40:39;14.67;;;9.47;;
15958;SDS011;8078;47.822;9.402;2024-01-30T12:43:05;15.10;;;9.33;;
15958;SDS011;8078;47.822;9.402;2024-01-30T12:45:30;13.43;;;9.93;;
15958;SDS011;8078;47.822;9.402;2024-01-30T12:47:56;14.50;;;10.03;;
15958;SDS011;8078;47.822;9.402;2024-01-30T12:50:23;18.10;;;9.60;;
15958;SDS011;8078;47.822;9.402;2024-01-30T12:52:48;14.53;;;10.27;;
15958;SDS011;8078;47.822;9.402;2024-01-30T12:55:15;15.13;;;8.60;;
15958;SDS011;8078;47.822;9.402;2024-01-30T12:57:41;15.83;;;9.50;;
15958;SDS011;8078;47.822;9.402;2024-01-30T13:00:08;17.87;;;9.50;;
15958;SDS011;8078;47.822;9.402;2024-01-30T13:02:34;13.97;;;9.43;;
15958;SDS011;8078;47.822;9.402;2024-01-30T13:05:02;15.20;;;10.30;;
15958;SDS011;8078;47.822;9.402;2024-01-30T13:07:29;17.43;;;9.53;;
15958;SDS011;8078;47.822;9.402;2024-01-30T13:09:55;12.87;;;9.33;;
15958;SDS011;8078;47.822;9.402;2024-01-30T13:12:21;12.57;;;9.37;;
15958;SDS011;8078;47.822;9.402;2024-01-30T13:14:46;16.20;;;10.20;;
15958;SDS011;8078;47.822;9.402;2024-01-30T13:17:12;15.67;;;9.60;;
15958;SDS011;8078;47.822;9.402;2024-01-30T13:19:38;12.63;;;8.97;;
15958;SDS011;8078;47.822;9.402;2024-01-30T13:22:03;13.57;;;9.60;;
15958;SDS011;8078;47.822;9.402;2024-01-30T13:24:29;14.13;;;8.47;;
15958;SDS011;8078;47.822;9.402;2024-01-30T13:26:54;14.40;;;8.50;;
15958;SDS011;8078;47.822;9.402;2024-01-30T13:29:20;13.87;;;8.70;;
15958;SDS011;8078;47.822;9.402;2024-01-30T13:31:46;13.40;;;8.80;;
15958;SDS011;8078;47.822;9.402;2024-01-30T13:34:12;15.00;;;8.33;;
15958;SDS011;8078;47.822;9.402;2024-01-30T13:36:38;14.63;;;8.63;;
15958;SDS011;8078;47.822;9.402;2024-01-30T13:39:04;12.23;;;8.70;;
15958;SDS011;8078;47.822;9.402;2024-01-30T13:41:34;11.13;;;7.73;;
15958;SDS011;8078;47.822;9.402;2024-01-30T13:43:59;13.43;;;7.73;;
15958;SDS011;8078;47.822;9.402;2024-01-30T13:46:25;9.83;;;7.13;;
15958;SDS011;8078;47.822;9.402;2024-01-30T13:48:50;11.97;;;7.53;;
15958;SDS011;8078;47.822;9.402;2024-01-30T13:51:16;11.57;;;8.00;;
15958;SDS011;8078;47.822;9.402;2024-01-30T13:53:42;12.17;;;7.90;;
15958;SDS011;8078;47.822;9.402;2024-01-30T13:56:08;18.17;;;8.47;;
15958;SDS011;8078;47.822;9.402;2024-01-30T13:58:33;11.37;;;7.57;;
15958;SDS011;8078;47.822;9.402;2024-01-30T14:01:01;12.83;;;7.20;;
15958;SDS011;8078;47.822;9.402;2024-01-30T14:03:27;11.47;;;7.50;;
15958;SDS011;8078;47.822;9.402;2024-01-30T14:05:52;9.33;;;7.30;;
15958;SDS011;8078;47.822;9.402;2024-01-30T14:08:18;10.50;;;7.43;;
15958;SDS011;8078;47.822;9.402;2024-01-30T14:10:46;12.47;;;7.83;;
15958;SDS011;8078;47.822;9.402;2024-01-30T14:13:12;11.17;;;7.57;;
15958;SDS011;8078;47.822;9.402;2024-01-30T14:15:37;12.17;;;7.17;;
15958;SDS011;8078;47.822;9.402;2024-01-30T14:18:03;9.57;;;7.17;;
15958;SDS011;8078;47.822;9.402;2024-01-30T14:20:30;10.13;;;7.10;;
15958;SDS011;8078;47.822;9.402;2024-01-30T14:22:56;12.00;;;7.37;;
15958;SDS011;8078;47.822;9.402;2024-01-30T14:25:22;9.13;;;6.73;;
15958;SDS011;8078;47.822;9.402;2024-01-30T14:27:47;10.53;;;6.57;;
15958;SDS011;8078;47.822;9.402;2024-01-30T14:30:13;8.87;;;6.60;;
15958;SDS011;8078;47.822;9.402;2024-01-30T14:32:38;10.90;;;6.80;;
15958;SDS011;8078;47.822;9.402;2024-01-30T14:35:05;8.53;;;6.17;;
15958;SDS011;8078;47.822;9.402;2024-01-30T14:37:31;9.03;;;6.93;;
15958;SDS011;8078;47.822;9.402;2024-01-30T14:39:57;10.80;;;6.97;;
15958;SDS011;8078;47.822;9.402;2024-01-30T14:42:22;10.53;;;7.40;;
15958;SDS011;8078;47.822;9.402;2024-01-30T14:44:48;12.47;;;7.70;;